createdAt,value
2023-04-20T00:00:06.965Z,5.40
2023-04-20T00:05:14.036Z,5.40
2023-04-20T00:10:21.195Z,5.10
2023-04-20T00:15:28.079Z,5.20
2023-04-20T00:20:35.806Z,5.20
2023-04-20T00:25:42.787Z,5.40
2023-04-20T00:30:49.671Z,5.30
2023-04-20T00:35:56.949Z,5.10
2023-04-20T00:41:04.413Z,5.30
2023-04-20T00:46:12.079Z,5.20
2023-04-20T00:51:19.171Z,5.10
2023-04-20T00:56:26.127Z,5.20
2023-04-20T01:01:33.527Z,5.40
2023-04-20T01:06:40.831Z,5.10
2023-04-20T01:11:48.024Z,5.20
2023-04-20T01:16:56.053Z,5.20
2023-04-20T01:22:03.326Z,4.90
2023-04-20T01:27:10.224Z,4.90
2023-04-20T01:32:17.413Z,5.10
2023-04-20T01:37:24.800Z,5.30
2023-04-20T01:42:32.142Z,5.20
2023-04-20T01:47:39.896Z,5.20
2023-04-20T01:52:46.812Z,5.10
2023-04-20T01:57:53.926Z,5.10
2023-04-20T02:03:01.466Z,5.10
2023-04-20T02:08:08.893Z,5.10
2023-04-20T02:13:16.423Z,5.00
2023-04-20T02:18:23.616Z,4.90
2023-04-20T02:23:31.226Z,5.00
2023-04-20T02:28:38.021Z,5.20
2023-04-20T02:33:44.776Z,5.20
2023-04-20T02:38:51.454Z,5.30
2023-04-20T02:43:58.394Z,5.30
2023-04-20T02:49:05.236Z,5.30
2023-04-20T02:54:12.221Z,5.50
2023-04-20T02:59:19.572Z,5.40
2023-04-20T03:04:28.107Z,5.50
2023-04-20T03:09:35.935Z,5.50
2023-04-20T03:14:42.660Z,5.50
2023-04-20T03:19:49.597Z,5.50
2023-04-20T03:24:57.561Z,5.20
2023-04-20T03:30:05.051Z,5.30
2023-04-20T03:35:12.414Z,5.30
2023-04-20T03:40:19.247Z,5.30
2023-04-20T03:45:26.210Z,5.30
2023-04-20T03:50:33.343Z,5.20
2023-04-20T03:55:40.262Z,5.40
2023-04-20T04:00:47.588Z,5.20
2023-04-20T04:05:54.415Z,5.40
2023-04-20T04:11:02.502Z,5.40
2023-04-20T04:16:11.890Z,5.40
2023-04-20T04:21:18.769Z,5.60
2023-04-20T04:26:25.959Z,5.70
2023-04-20T04:31:33.093Z,5.60
2023-04-20T04:36:40.596Z,5.50
2023-04-20T04:41:48.184Z,5.30
2023-04-20T04:46:55.734Z,5.30
2023-04-20T04:52:03.321Z,5.30
2023-04-20T04:57:10.131Z,5.50
2023-04-20T05:02:17.332Z,5.50
2023-04-20T05:07:25.480Z,5.50
2023-04-20T05:12:32.816Z,5.60
2023-04-20T05:17:42.926Z,5.30
2023-04-20T05:22:50.126Z,5.30
2023-04-20T05:27:57.026Z,5.50
2023-04-20T05:33:04.099Z,5.60
2023-04-20T05:38:11.347Z,5.70
2023-04-20T05:43:20.041Z,6.00
2023-04-20T05:48:30.298Z,6.20
2023-04-20T05:53:37.229Z,6.20
2023-04-20T05:58:44.530Z,6.00
2023-04-20T06:03:51.573Z,6.10
2023-04-20T06:08:58.701Z,6.00
2023-04-20T06:14:05.836Z,6.10
2023-04-20T06:19:12.739Z,6.00
2023-04-20T06:24:19.703Z,6.10
2023-04-20T06:29:26.467Z,6.20
2023-04-20T06:34:33.703Z,6.20
2023-04-20T06:39:40.770Z,6.40
2023-04-20T06:44:47.542Z,6.40
2023-04-20T06:49:54.389Z,6.40
2023-04-20T06:55:02.043Z,6.40
2023-04-20T07:00:15.028Z,6.50
2023-04-20T07:05:22.058Z,6.90
2023-04-20T07:10:28.817Z,6.80
2023-04-20T07:15:36.049Z,6.80
2023-04-20T07:20:43.210Z,7.10
2023-04-20T07:25:50.174Z,7.10
2023-04-20T07:30:56.963Z,7.20
2023-04-20T07:36:05.317Z,7.50
2023-04-20T07:41:13.143Z,7.50
2023-04-20T07:46:24.851Z,7.40
2023-04-20T07:51:32.861Z,7.60
2023-04-20T07:56:39.895Z,8.10
2023-04-20T08:01:46.950Z,7.90
2023-04-20T08:06:53.925Z,7.90
2023-04-20T08:12:00.972Z,8.00
2023-04-20T08:17:08.898Z,8.10
2023-04-20T08:22:16.015Z,8.00
2023-04-20T08:27:22.937Z,8.10
2023-04-20T08:32:29.858Z,8.40
2023-04-20T08:37:38.021Z,8.20
2023-04-20T08:42:46.151Z,8.20
2023-04-20T08:47:53.781Z,8.20
2023-04-20T08:53:03.827Z,8.10
2023-04-20T08:58:10.738Z,8.20
2023-04-20T09:03:18.140Z,8.00
2023-04-20T09:08:38.192Z,8.60
2023-04-20T09:13:45.945Z,8.30
2023-04-20T09:18:57.414Z,8.20
2023-04-20T09:24:09.725Z,8.30
2023-04-20T09:29:27.106Z,8.20
2023-04-20T09:34:46.035Z,8.30
2023-04-20T09:39:54.656Z,8.00
2023-04-20T09:45:04.133Z,8.40
2023-04-20T09:50:26.579Z,8.80
2023-04-20T09:55:23.219Z,9.20
2023-04-20T10:00:31.170Z,9.50
2023-04-20T10:05:40.303Z,9.30
2023-04-20T10:10:50.959Z,9.40
2023-04-20T10:15:57.846Z,9.30
2023-04-20T10:21:14.040Z,9.70
2023-04-20T10:26:23.595Z,9.40
2023-04-20T10:31:39.366Z,9.70
2023-04-20T10:36:46.842Z,9.40
2023-04-20T10:42:04.683Z,9.50
2023-04-20T10:47:12.033Z,9.40
2023-04-20T10:52:18.880Z,9.70
2023-04-20T10:57:26.064Z,10.00
2023-04-20T11:02:33.146Z,10.30
2023-04-20T11:07:51.015Z,10.20
2023-04-20T11:13:01.054Z,10.10
2023-04-20T11:18:13.041Z,9.80
2023-04-20T11:23:22.353Z,10.10
2023-04-20T11:28:30.737Z,10.10
2023-04-20T11:33:37.929Z,9.70
2023-04-20T11:38:45.308Z,9.90
2023-04-20T11:43:53.306Z,10.50
2023-04-20T11:49:01.521Z,10.00
2023-04-20T11:54:08.499Z,10.10
2023-04-20T11:59:17.647Z,10.80
2023-04-20T12:04:25.326Z,10.80
2023-04-20T12:09:34.692Z,11.20
2023-04-20T12:14:41.916Z,10.90
2023-04-20T12:19:48.658Z,10.60
2023-04-20T12:24:55.521Z,10.90
2023-04-20T12:30:02.263Z,11.10
2023-04-20T12:35:10.288Z,11.50
2023-04-20T12:40:17.068Z,11.30
2023-04-20T12:45:23.935Z,11.30
2023-04-20T12:50:30.843Z,12.10
2023-04-20T12:55:37.919Z,12.10
2023-04-20T13:00:45.423Z,11.80
2023-04-20T13:05:52.675Z,12.10
2023-04-20T13:10:59.793Z,12.20
2023-04-20T13:16:07.058Z,12.00
2023-04-20T13:21:14.121Z,11.40
2023-04-20T13:26:21.218Z,11.00
2023-04-20T13:31:28.429Z,10.90
2023-04-20T13:36:35.600Z,11.00
2023-04-20T13:41:42.690Z,11.10
2023-04-20T13:46:51.761Z,11.20
2023-04-20T13:51:58.907Z,11.50
2023-04-20T13:57:06.326Z,11.80
2023-04-20T14:02:13.193Z,11.20
2023-04-20T14:07:20.212Z,12.00
2023-04-20T14:12:28.176Z,11.40
2023-04-20T14:17:34.952Z,11.50
2023-04-20T14:22:43.817Z,11.50
2023-04-20T14:27:50.567Z,11.40
2023-04-20T14:33:04.478Z,11.40
2023-04-20T14:38:11.735Z,11.30
2023-04-20T14:43:18.832Z,11.30
2023-04-20T14:48:27.580Z,11.30
2023-04-20T14:53:35.160Z,11.40
2023-04-20T14:58:42.823Z,11.50
2023-04-20T15:03:49.921Z,11.60
2023-04-20T15:08:57.752Z,11.20
2023-04-20T15:14:04.802Z,11.20
2023-04-20T15:19:12.220Z,11.40
2023-04-20T15:24:19.412Z,11.40
2023-04-20T15:29:26.351Z,11.50
2023-04-20T15:34:33.340Z,11.40
2023-04-20T15:39:40.342Z,11.50
2023-04-20T15:44:47.336Z,11.50
2023-04-20T15:49:55.968Z,11.60
2023-04-20T15:55:04.377Z,11.70
2023-04-20T16:00:12.931Z,11.50
2023-04-20T16:05:20.232Z,11.50
2023-04-20T16:10:28.521Z,11.60
2023-04-20T16:15:35.181Z,11.60
2023-04-20T16:20:41.979Z,11.50
2023-04-20T16:25:48.981Z,11.20
2023-04-20T16:30:56.508Z,11.10
2023-04-20T16:36:03.754Z,11.10
2023-04-20T16:41:10.649Z,11.00
2023-04-20T16:46:19.535Z,10.90
2023-04-20T16:51:26.325Z,10.80
2023-04-20T16:56:33.066Z,10.80
2023-04-20T17:01:40.314Z,10.60
2023-04-20T17:06:47.697Z,10.40
2023-04-20T17:11:54.460Z,10.40
2023-04-20T17:17:01.321Z,10.20
2023-04-20T17:22:08.621Z,10.20
2023-04-20T17:27:16.350Z,10.00
2023-04-20T17:32:23.106Z,9.90
2023-04-20T17:37:29.833Z,9.80
2023-04-20T17:42:36.574Z,9.60
2023-04-20T17:47:43.283Z,9.60
2023-04-20T17:52:50.205Z,9.50
2023-04-20T17:57:56.961Z,9.40
2023-04-20T18:03:05.763Z,9.40
2023-04-20T18:08:14.109Z,9.40
2023-04-20T18:13:20.891Z,9.30
2023-04-20T18:18:27.653Z,9.10
2023-04-20T18:23:34.776Z,9.10
2023-04-20T18:28:41.563Z,9.10
2023-04-20T18:33:48.345Z,9.20
2023-04-20T18:38:56.146Z,9.20
2023-04-20T18:44:02.918Z,9.20
2023-04-20T18:49:11.072Z,9.20
2023-04-20T18:54:18.570Z,9.10
2023-04-20T18:59:26.112Z,9.20
2023-04-20T19:04:34.412Z,9.40
2023-04-20T19:09:41.242Z,9.40
2023-04-20T19:14:49.244Z,9.40
2023-04-20T19:19:56.705Z,9.40
2023-04-20T19:25:04.955Z,9.30
2023-04-20T19:30:12.328Z,9.30
2023-04-20T19:35:19.107Z,9.30
2023-04-20T19:40:25.935Z,9.20
2023-04-20T19:45:32.695Z,9.20
2023-04-20T19:50:39.504Z,9.20
2023-04-20T19:55:46.431Z,9.20
2023-04-20T20:00:53.196Z,9.10
2023-04-20T20:06:01.414Z,9.10
2023-04-20T20:11:08.247Z,9.00
2023-04-20T20:16:14.976Z,8.90
2023-04-20T20:21:21.705Z,8.80
2023-04-20T20:26:28.428Z,9.00
2023-04-20T20:31:35.200Z,8.90
2023-04-20T20:36:43.490Z,8.80
2023-04-20T20:41:51.428Z,8.80
2023-04-20T20:46:58.459Z,8.80
2023-04-20T20:52:06.973Z,8.60
2023-04-20T20:57:13.744Z,8.60
2023-04-20T21:02:20.541Z,8.50
2023-04-20T21:07:28.651Z,8.20
2023-04-20T21:12:35.581Z,8.20
2023-04-20T21:17:42.332Z,8.20
2023-04-20T21:22:49.373Z,8.00
2023-04-20T21:27:56.125Z,8.00
2023-04-20T21:33:02.868Z,7.90
2023-04-20T21:38:09.630Z,8.00
2023-04-20T21:43:16.376Z,8.10
2023-04-20T21:48:23.206Z,8.20
2023-04-20T21:53:29.955Z,8.30
2023-04-20T21:58:36.671Z,8.30
2023-04-20T22:03:43.589Z,8.20
2023-04-20T22:08:50.629Z,8.10
2023-04-20T22:13:59.142Z,8.10
2023-04-20T22:19:05.843Z,8.10
2023-04-20T22:24:12.591Z,8.20
2023-04-20T22:29:19.719Z,8.10
2023-04-20T22:34:26.677Z,8.00
2023-04-20T22:39:33.342Z,8.00
2023-04-20T22:44:40.131Z,7.90
2023-04-20T22:49:47.002Z,8.10
2023-04-20T22:54:53.812Z,8.20
2023-04-20T23:00:00.573Z,8.20
2023-04-20T23:05:08.186Z,8.20
2023-04-20T23:10:17.948Z,8.20
2023-04-20T23:15:24.693Z,8.10
2023-04-20T23:20:31.438Z,8.00
2023-04-20T23:25:38.855Z,8.00
2023-04-20T23:30:45.706Z,8.00
2023-04-20T23:35:52.434Z,8.00
2023-04-20T23:40:59.133Z,8.10
2023-04-20T23:46:06.640Z,8.00
2023-04-20T23:51:13.639Z,8.10
2023-04-20T23:56:20.400Z,8.10
